sensor_id;sensor_type;location;lat;lon;timestamp;temperature;humidity
57636;DHT22;43465;50.728;4.160;2023-02-02T00:00:09;9.20;99.90
57636;DHT22;43465;50.728;4.160;2023-02-02T00:02:35;9.20;99.90
57636;DHT22;43465;50.728;4.160;2023-02-02T00:05:01;9.20;99.90
57636;DHT22;43465;50.728;4.160;2023-02-02T00:07:26;9.10;99.90
57636;DHT22;43465;50.728;4.160;2023-02-02T00:09:52;9.10;99.90
57636;DHT22;43465;50.728;4.160;2023-02-02T00:12:17;9.10;99.90
57636;DHT22;43465;50.728;4.160;2023-02-02T00:14:43;9.20;99.90
57636;DHT22;43465;50.728;4.160;2023-02-02T00:17:11;9.10;99.90
57636;DHT22;43465;50.728;4.160;2023-02-02T00:19:37;9.10;99.90
57636;DHT22;43465;50.728;4.160;2023-02-02T00:22:02;9.10;99.90
57636;DHT22;43465;50.728;4.160;2023-02-02T00:24:28;9.10;99.90
57636;DHT22;43465;50.728;4.160;2023-02-02T00:26:58;9.10;99.90
57636;DHT22;43465;50.728;4.160;2023-02-02T00:29:27;9.10;99.90
57636;DHT22;43465;50.728;4.160;2023-02-02T00:31:53;9.10;99.90
57636;DHT22;43465;50.728;4.160;2023-02-02T00:34:20;9.10;99.90
57636;DHT22;43465;50.728;4.160;2023-02-02T00:36:46;9.10;99.90
57636;DHT22;43465;50.728;4.160;2023-02-02T00:39:15;9.10;99.90
57636;DHT22;43465;50.728;4.160;2023-02-02T00:41:43;9.10;99.90
57636;DHT22;43465;50.728;4.160;2023-02-02T00:44:08;9.00;99.90
57636;DHT22;43465;50.728;4.160;2023-02-02T00:46:52;9.00;99.90
57636;DHT22;43465;50.728;4.160;2023-02-02T00:49:18;8.90;99.90
57636;DHT22;43465;50.728;4.160;2023-02-02T00:51:44;8.90;99.90
57636;DHT22;43465;50.728;4.160;2023-02-02T00:54:09;9.00;99.90
57636;DHT22;43465;50.728;4.160;2023-02-02T00:56:35;9.00;99.90
57636;DHT22;43465;50.728;4.160;2023-02-02T00:59:01;9.00;99.90
57636;DHT22;43465;50.728;4.160;2023-02-02T01:01:26;9.10;99.90
57636;DHT22;43465;50.728;4.160;2023-02-02T01:03:53;9.10;99.90
57636;DHT22;43465;50.728;4.160;2023-02-02T01:06:19;9.00;99.90
57636;DHT22;43465;50.728;4.160;2023-02-02T01:08:44;9.00;99.90
57636;DHT22;43465;50.728;4.160;2023-02-02T01:11:10;9.10;99.90
57636;DHT22;43465;50.728;4.160;2023-02-02T01:13:36;9.00;99.90
57636;DHT22;43465;50.728;4.160;2023-02-02T01:16:03;9.00;99.90
57636;DHT22;43465;50.728;4.160;2023-02-02T01:18:29;9.10;99.90
57636;DHT22;43465;50.728;4.160;2023-02-02T01:21:01;9.10;99.90
57636;DHT22;43465;50.728;4.160;2023-02-02T01:23:27;9.10;99.90
57636;DHT22;43465;50.728;4.160;2023-02-02T01:25:58;9.10;99.90
57636;DHT22;43465;50.728;4.160;2023-02-02T01:28:24;9.20;99.90
57636;DHT22;43465;50.728;4.160;2023-02-02T01:30:50;9.20;99.90
57636;DHT22;43465;50.728;4.160;2023-02-02T01:33:16;9.30;99.90
57636;DHT22;43465;50.728;4.160;2023-02-02T01:35:53;9.30;99.90
57636;DHT22;43465;50.728;4.160;2023-02-02T01:38:20;9.30;99.90
57636;DHT22;43465;50.728;4.160;2023-02-02T01:40:51;9.20;99.90
57636;DHT22;43465;50.728;4.160;2023-02-02T01:45:50;9.20;99.90
57636;DHT22;43465;50.728;4.160;2023-02-02T01:48:18;9.20;99.90
57636;DHT22;43465;50.728;4.160;2023-02-02T01:50:45;9.20;99.90
57636;DHT22;43465;50.728;4.160;2023-02-02T01:53:12;9.10;99.90
57636;DHT22;43465;50.728;4.160;2023-02-02T01:55:38;9.10;99.90
57636;DHT22;43465;50.728;4.160;2023-02-02T01:58:10;9.10;99.90
57636;DHT22;43465;50.728;4.160;2023-02-02T02:00:37;9.10;99.90
57636;DHT22;43465;50.728;4.160;2023-02-02T02:03:07;9.10;99.90
57636;DHT22;43465;50.728;4.160;2023-02-02T02:05:39;9.00;99.90
57636;DHT22;43465;50.728;4.160;2023-02-02T02:08:17;9.00;99.90
57636;DHT22;43465;50.728;4.160;2023-02-02T02:10:44;9.00;99.90
57636;DHT22;43465;50.728;4.160;2023-02-02T02:13:10;9.00;99.90
57636;DHT22;43465;50.728;4.160;2023-02-02T02:15:47;9.00;99.90
57636;DHT22;43465;50.728;4.160;2023-02-02T02:18:54;9.00;99.90
57636;DHT22;43465;50.728;4.160;2023-02-02T02:21:35;9.00;99.90
57636;DHT22;43465;50.728;4.160;2023-02-02T02:27:47;9.00;99.90
57636;DHT22;43465;50.728;4.160;2023-02-02T02:38:23;8.90;99.90
57636;DHT22;43465;50.728;4.160;2023-02-02T02:40:58;8.90;99.90
57636;DHT22;43465;50.728;4.160;2023-02-02T02:43:29;8.90;99.90
57636;DHT22;43465;50.728;4.160;2023-02-02T02:45:56;8.90;99.90
57636;DHT22;43465;50.728;4.160;2023-02-02T02:48:22;8.90;99.90
57636;DHT22;43465;50.728;4.160;2023-02-02T02:50:48;8.90;99.90
57636;DHT22;43465;50.728;4.160;2023-02-02T02:53:20;8.90;99.90
57636;DHT22;43465;50.728;4.160;2023-02-02T03:03:51;8.90;99.90
57636;DHT22;43465;50.728;4.160;2023-02-02T03:08:58;8.60;99.90
57636;DHT22;43465;50.728;4.160;2023-02-02T03:11:25;8.50;99.90
57636;DHT22;43465;50.728;4.160;2023-02-02T03:13:54;8.40;99.90
57636;DHT22;43465;50.728;4.160;2023-02-02T03:16:20;8.30;99.90
57636;DHT22;43465;50.728;4.160;2023-02-02T03:18:46;8.30;99.90
57636;DHT22;43465;50.728;4.160;2023-02-02T03:21:11;8.20;99.90
57636;DHT22;43465;50.728;4.160;2023-02-02T03:23:38;8.20;99.90
57636;DHT22;43465;50.728;4.160;2023-02-02T03:26:04;8.20;99.90
57636;DHT22;43465;50.728;4.160;2023-02-02T03:28:30;8.10;99.90
57636;DHT22;43465;50.728;4.160;2023-02-02T03:30:57;8.20;99.90
57636;DHT22;43465;50.728;4.160;2023-02-02T03:33:25;8.10;99.90
57636;DHT22;43465;50.728;4.160;2023-02-02T03:35:51;8.20;99.90
57636;DHT22;43465;50.728;4.160;2023-02-02T03:38:17;8.10;99.90
57636;DHT22;43465;50.728;4.160;2023-02-02T03:40:43;8.10;99.90
57636;DHT22;43465;50.728;4.160;2023-02-02T03:43:09;8.10;99.90
57636;DHT22;43465;50.728;4.160;2023-02-02T03:45:35;8.00;99.90
57636;DHT22;43465;50.728;4.160;2023-02-02T03:48:05;8.00;99.90
57636;DHT22;43465;50.728;4.160;2023-02-02T03:50:31;7.90;99.90
57636;DHT22;43465;50.728;4.160;2023-02-02T03:52:57;7.90;99.90
57636;DHT22;43465;50.728;4.160;2023-02-02T03:55:22;7.90;99.90
57636;DHT22;43465;50.728;4.160;2023-02-02T03:57:48;7.90;99.90
57636;DHT22;43465;50.728;4.160;2023-02-02T04:00:14;7.90;99.90
57636;DHT22;43465;50.728;4.160;2023-02-02T04:02:40;7.90;99.90
57636;DHT22;43465;50.728;4.160;2023-02-02T04:05:05;8.00;99.90
57636;DHT22;43465;50.728;4.160;2023-02-02T04:07:31;7.90;99.90
57636;DHT22;43465;50.728;4.160;2023-02-02T04:09:57;8.00;99.90
57636;DHT22;43465;50.728;4.160;2023-02-02T04:12:22;8.00;99.90
57636;DHT22;43465;50.728;4.160;2023-02-02T04:14:48;8.00;99.90
57636;DHT22;43465;50.728;4.160;2023-02-02T04:17:13;7.90;99.90
57636;DHT22;43465;50.728;4.160;2023-02-02T04:19:39;7.90;99.90
57636;DHT22;43465;50.728;4.160;2023-02-02T04:22:05;8.00;99.90
57636;DHT22;43465;50.728;4.160;2023-02-02T04:24:30;8.00;99.90
57636;DHT22;43465;50.728;4.160;2023-02-02T04:26:56;8.00;99.90
57636;DHT22;43465;50.728;4.160;2023-02-02T04:29:22;8.00;99.90
57636;DHT22;43465;50.728;4.160;2023-02-02T04:31:47;7.90;99.90
57636;DHT22;43465;50.728;4.160;2023-02-02T04:34:13;8.00;99.90
57636;DHT22;43465;50.728;4.160;2023-02-02T04:36:39;8.00;99.90
57636;DHT22;43465;50.728;4.160;2023-02-02T04:39:04;8.00;99.90
57636;DHT22;43465;50.728;4.160;2023-02-02T04:41:30;8.00;99.90
57636;DHT22;43465;50.728;4.160;2023-02-02T04:43:56;7.90;99.90
57636;DHT22;43465;50.728;4.160;2023-02-02T04:46:21;8.00;99.90
57636;DHT22;43465;50.728;4.160;2023-02-02T04:48:48;8.00;99.90
57636;DHT22;43465;50.728;4.160;2023-02-02T04:51:14;8.00;99.90
57636;DHT22;43465;50.728;4.160;2023-02-02T04:53:41;8.00;99.90
57636;DHT22;43465;50.728;4.160;2023-02-02T04:56:09;7.90;99.90
57636;DHT22;43465;50.728;4.160;2023-02-02T04:58:36;7.90;99.90
57636;DHT22;43465;50.728;4.160;2023-02-02T05:01:17;7.90;99.90
57636;DHT22;43465;50.728;4.160;2023-02-02T05:03:44;7.90;99.90
57636;DHT22;43465;50.728;4.160;2023-02-02T05:06:10;7.90;99.90
57636;DHT22;43465;50.728;4.160;2023-02-02T05:08:36;7.90;99.90
57636;DHT22;43465;50.728;4.160;2023-02-02T05:11:07;7.90;99.90
57636;DHT22;43465;50.728;4.160;2023-02-02T05:13:33;7.90;99.90
57636;DHT22;43465;50.728;4.160;2023-02-02T05:15:58;7.90;99.90
57636;DHT22;43465;50.728;4.160;2023-02-02T05:18:24;7.90;99.90
57636;DHT22;43465;50.728;4.160;2023-02-02T05:20:50;8.10;99.90
57636;DHT22;43465;50.728;4.160;2023-02-02T05:23:17;8.20;99.90
57636;DHT22;43465;50.728;4.160;2023-02-02T05:25:43;8.30;99.90
57636;DHT22;43465;50.728;4.160;2023-02-02T05:28:08;8.40;99.90
57636;DHT22;43465;50.728;4.160;2023-02-02T05:30:34;8.40;99.90
57636;DHT22;43465;50.728;4.160;2023-02-02T05:33:00;8.50;99.90
57636;DHT22;43465;50.728;4.160;2023-02-02T05:35:25;8.50;99.90
57636;DHT22;43465;50.728;4.160;2023-02-02T05:37:51;8.60;99.90
57636;DHT22;43465;50.728;4.160;2023-02-02T05:40:16;8.60;99.90
57636;DHT22;43465;50.728;4.160;2023-02-02T05:42:42;8.60;99.90
57636;DHT22;43465;50.728;4.160;2023-02-02T05:45:11;8.60;99.90
57636;DHT22;43465;50.728;4.160;2023-02-02T05:47:37;8.60;99.90
57636;DHT22;43465;50.728;4.160;2023-02-02T05:50:03;8.50;99.90
57636;DHT22;43465;50.728;4.160;2023-02-02T05:52:30;8.50;99.90
57636;DHT22;43465;50.728;4.160;2023-02-02T05:54:57;8.40;99.90
57636;DHT22;43465;50.728;4.160;2023-02-02T05:57:22;8.40;99.90
57636;DHT22;43465;50.728;4.160;2023-02-02T05:59:48;8.40;99.90
57636;DHT22;43465;50.728;4.160;2023-02-02T06:02:14;8.40;99.90
57636;DHT22;43465;50.728;4.160;2023-02-02T06:04:39;8.40;99.90
57636;DHT22;43465;50.728;4.160;2023-02-02T06:07:05;8.40;99.90
57636;DHT22;43465;50.728;4.160;2023-02-02T06:09:30;8.40;99.90
57636;DHT22;43465;50.728;4.160;2023-02-02T06:11:56;8.40;99.90
57636;DHT22;43465;50.728;4.160;2023-02-02T06:14:22;8.40;99.90
57636;DHT22;43465;50.728;4.160;2023-02-02T06:16:47;8.40;99.90
57636;DHT22;43465;50.728;4.160;2023-02-02T06:19:13;8.40;99.90
57636;DHT22;43465;50.728;4.160;2023-02-02T06:21:39;8.40;99.90
57636;DHT22;43465;50.728;4.160;2023-02-02T06:24:04;8.40;99.90
57636;DHT22;43465;50.728;4.160;2023-02-02T06:26:30;8.40;99.90
57636;DHT22;43465;50.728;4.160;2023-02-02T06:28:56;8.40;99.90
57636;DHT22;43465;50.728;4.160;2023-02-02T06:31:22;8.40;99.90
57636;DHT22;43465;50.728;4.160;2023-02-02T06:33:56;8.40;99.90
57636;DHT22;43465;50.728;4.160;2023-02-02T06:36:24;8.40;99.90
57636;DHT22;43465;50.728;4.160;2023-02-02T06:38:52;8.40;99.90
57636;DHT22;43465;50.728;4.160;2023-02-02T06:41:18;8.30;99.90
57636;DHT22;43465;50.728;4.160;2023-02-02T06:43:47;8.40;99.90
57636;DHT22;43465;50.728;4.160;2023-02-02T06:46:13;8.40;99.90
57636;DHT22;43465;50.728;4.160;2023-02-02T06:48:39;8.40;99.90
57636;DHT22;43465;50.728;4.160;2023-02-02T06:51:05;8.40;99.90
57636;DHT22;43465;50.728;4.160;2023-02-02T06:53:32;8.40;99.90
57636;DHT22;43465;50.728;4.160;2023-02-02T06:55:59;8.40;99.90
57636;DHT22;43465;50.728;4.160;2023-02-02T06:58:26;8.50;99.90
57636;DHT22;43465;50.728;4.160;2023-02-02T07:00:52;8.50;99.90
57636;DHT22;43465;50.728;4.160;2023-02-02T07:03:18;8.50;99.90
57636;DHT22;43465;50.728;4.160;2023-02-02T07:05:47;8.50;99.90
57636;DHT22;43465;50.728;4.160;2023-02-02T07:08:13;8.50;99.90
57636;DHT22;43465;50.728;4.160;2023-02-02T07:10:38;8.50;99.90
57636;DHT22;43465;50.728;4.160;2023-02-02T07:13:04;8.50;99.90
57636;DHT22;43465;50.728;4.160;2023-02-02T07:15:36;8.50;99.90
57636;DHT22;43465;50.728;4.160;2023-02-02T07:18:02;8.50;99.90
57636;DHT22;43465;50.728;4.160;2023-02-02T07:20:28;8.50;99.90
57636;DHT22;43465;50.728;4.160;2023-02-02T07:22:53;8.60;99.90
57636;DHT22;43465;50.728;4.160;2023-02-02T07:25:19;8.60;99.90
57636;DHT22;43465;50.728;4.160;2023-02-02T07:27:45;8.60;99.90
57636;DHT22;43465;50.728;4.160;2023-02-02T07:30:12;8.60;99.90
57636;DHT22;43465;50.728;4.160;2023-02-02T07:32:38;8.70;99.90
57636;DHT22;43465;50.728;4.160;2023-02-02T07:35:04;8.60;99.90
57636;DHT22;43465;50.728;4.160;2023-02-02T07:37:30;8.60;99.90
57636;DHT22;43465;50.728;4.160;2023-02-02T07:39:56;8.60;99.90
57636;DHT22;43465;50.728;4.160;2023-02-02T07:42:22;8.60;99.90
57636;DHT22;43465;50.728;4.160;2023-02-02T07:44:47;8.60;99.90
57636;DHT22;43465;50.728;4.160;2023-02-02T07:47:13;8.60;99.90
57636;DHT22;43465;50.728;4.160;2023-02-02T07:49:38;8.60;99.90
57636;DHT22;43465;50.728;4.160;2023-02-02T07:52:04;8.70;99.90
57636;DHT22;43465;50.728;4.160;2023-02-02T07:54:30;8.60;99.90
57636;DHT22;43465;50.728;4.160;2023-02-02T07:56:56;8.70;99.90
57636;DHT22;43465;50.728;4.160;2023-02-02T07:59:22;8.70;99.90
57636;DHT22;43465;50.728;4.160;2023-02-02T08:01:48;8.70;99.90
57636;DHT22;43465;50.728;4.160;2023-02-02T08:04:13;8.70;99.90
57636;DHT22;43465;50.728;4.160;2023-02-02T08:06:40;8.80;99.90
57636;DHT22;43465;50.728;4.160;2023-02-02T08:09:07;8.80;99.90
57636;DHT22;43465;50.728;4.160;2023-02-02T08:11:34;8.80;99.90
57636;DHT22;43465;50.728;4.160;2023-02-02T08:14:00;8.80;99.90
57636;DHT22;43465;50.728;4.160;2023-02-02T08:16:28;8.80;99.90
57636;DHT22;43465;50.728;4.160;2023-02-02T08:18:54;8.90;99.90
57636;DHT22;43465;50.728;4.160;2023-02-02T08:21:20;8.90;99.90
57636;DHT22;43465;50.728;4.160;2023-02-02T08:23:46;8.90;99.90
57636;DHT22;43465;50.728;4.160;2023-02-02T08:28:40;8.90;99.90
57636;DHT22;43465;50.728;4.160;2023-02-02T08:31:16;9.00;99.90
57636;DHT22;43465;50.728;4.160;2023-02-02T08:33:42;9.00;99.90
57636;DHT22;43465;50.728;4.160;2023-02-02T08:36:13;9.00;99.90
57636;DHT22;43465;50.728;4.160;2023-02-02T08:38:39;9.00;99.90
57636;DHT22;43465;50.728;4.160;2023-02-02T08:41:06;9.00;99.90
57636;DHT22;43465;50.728;4.160;2023-02-02T08:43:33;9.00;99.90
57636;DHT22;43465;50.728;4.160;2023-02-02T08:45:58;9.00;99.90
57636;DHT22;43465;50.728;4.160;2023-02-02T08:48:24;9.00;99.90
57636;DHT22;43465;50.728;4.160;2023-02-02T08:50:54;9.00;99.90
57636;DHT22;43465;50.728;4.160;2023-02-02T08:53:20;9.10;99.90
57636;DHT22;43465;50.728;4.160;2023-02-02T08:55:47;9.10;99.90
57636;DHT22;43465;50.728;4.160;2023-02-02T08:58:12;9.10;99.90
57636;DHT22;43465;50.728;4.160;2023-02-02T09:00:38;9.20;99.90
57636;DHT22;43465;50.728;4.160;2023-02-02T09:03:04;9.20;99.90
57636;DHT22;43465;50.728;4.160;2023-02-02T09:05:30;9.20;99.90
57636;DHT22;43465;50.728;4.160;2023-02-02T09:07:56;9.20;99.90
57636;DHT22;43465;50.728;4.160;2023-02-02T09:10:21;9.30;99.90
57636;DHT22;43465;50.728;4.160;2023-02-02T09:12:47;9.30;99.90
57636;DHT22;43465;50.728;4.160;2023-02-02T09:15:13;9.30;99.90
57636;DHT22;43465;50.728;4.160;2023-02-02T09:17:38;9.40;99.90
57636;DHT22;43465;50.728;4.160;2023-02-02T09:20:04;9.40;99.90
57636;DHT22;43465;50.728;4.160;2023-02-02T09:22:32;9.40;99.90
57636;DHT22;43465;50.728;4.160;2023-02-02T09:24:57;9.40;99.90
57636;DHT22;43465;50.728;4.160;2023-02-02T09:27:23;9.50;99.90
57636;DHT22;43465;50.728;4.160;2023-02-02T09:29:49;9.50;99.90
57636;DHT22;43465;50.728;4.160;2023-02-02T09:32:14;9.50;99.90
57636;DHT22;43465;50.728;4.160;2023-02-02T09:34:40;9.50;99.90
57636;DHT22;43465;50.728;4.160;2023-02-02T09:37:05;9.60;99.90
57636;DHT22;43465;50.728;4.160;2023-02-02T09:39:49;9.60;99.90
57636;DHT22;43465;50.728;4.160;2023-02-02T09:45:17;9.60;99.90
57636;DHT22;43465;50.728;4.160;2023-02-02T09:47:53;9.70;99.90
57636;DHT22;43465;50.728;4.160;2023-02-02T09:55:40;9.90;99.90
57636;DHT22;43465;50.728;4.160;2023-02-02T10:06:25;10.00;99.90
57636;DHT22;43465;50.728;4.160;2023-02-02T10:08:56;10.00;99.90
57636;DHT22;43465;50.728;4.160;2023-02-02T10:14:14;10.10;99.90
57636;DHT22;43465;50.728;4.160;2023-02-02T10:16:42;10.10;99.90
57636;DHT22;43465;50.728;4.160;2023-02-02T10:19:10;10.20;99.90
57636;DHT22;43465;50.728;4.160;2023-02-02T10:21:59;10.30;99.90
57636;DHT22;43465;50.728;4.160;2023-02-02T10:24:28;10.40;99.90
57636;DHT22;43465;50.728;4.160;2023-02-02T10:26:56;10.40;99.90
57636;DHT22;43465;50.728;4.160;2023-02-02T10:30:05;10.40;99.90
57636;DHT22;43465;50.728;4.160;2023-02-02T10:32:38;10.50;99.90
57636;DHT22;43465;50.728;4.160;2023-02-02T10:37:57;10.50;99.90
57636;DHT22;43465;50.728;4.160;2023-02-02T10:46:29;10.60;99.90
57636;DHT22;43465;50.728;4.160;2023-02-02T10:49:33;10.70;99.90
57636;DHT22;43465;50.728;4.160;2023-02-02T10:57:13;10.50;99.90
57636;DHT22;43465;50.728;4.160;2023-02-02T10:59:49;10.50;99.90
57636;DHT22;43465;50.728;4.160;2023-02-02T11:02:20;10.50;99.90
57636;DHT22;43465;50.728;4.160;2023-02-02T11:04:45;10.50;99.90
57636;DHT22;43465;50.728;4.160;2023-02-02T11:07:29;10.60;99.90
57636;DHT22;43465;50.728;4.160;2023-02-02T11:09:55;10.70;99.90
57636;DHT22;43465;50.728;4.160;2023-02-02T11:12:34;10.70;99.90
57636;DHT22;43465;50.728;4.160;2023-02-02T11:15:07;10.80;99.90
57636;DHT22;43465;50.728;4.160;2023-02-02T11:17:46;10.80;99.90
57636;DHT22;43465;50.728;4.160;2023-02-02T11:20:33;10.90;99.90
57636;DHT22;43465;50.728;4.160;2023-02-02T11:23:03;11.00;99.90
57636;DHT22;43465;50.728;4.160;2023-02-02T11:25:32;11.10;99.90
57636;DHT22;43465;50.728;4.160;2023-02-02T11:28:00;11.10;99.90
57636;DHT22;43465;50.728;4.160;2023-02-02T11:30:36;11.00;99.90
57636;DHT22;43465;50.728;4.160;2023-02-02T11:35:58;11.00;99.90
57636;DHT22;43465;50.728;4.160;2023-02-02T11:38:25;11.00;99.90
57636;DHT22;43465;50.728;4.160;2023-02-02T11:41:02;11.00;99.90
57636;DHT22;43465;50.728;4.160;2023-02-02T11:43:35;11.10;99.90
57636;DHT22;43465;50.728;4.160;2023-02-02T11:46:28;11.20;99.90
57636;DHT22;43465;50.728;4.160;2023-02-02T11:49:05;11.30;99.90
57636;DHT22;43465;50.728;4.160;2023-02-02T11:51:34;11.30;99.90
57636;DHT22;43465;50.728;4.160;2023-02-02T11:54:26;11.50;99.90
57636;DHT22;43465;50.728;4.160;2023-02-02T11:56:53;11.60;99.90
57636;DHT22;43465;50.728;4.160;2023-02-02T11:59:40;11.60;99.90
57636;DHT22;43465;50.728;4.160;2023-02-02T12:02:28;11.60;99.90
57636;DHT22;43465;50.728;4.160;2023-02-02T12:07:38;11.50;99.90
57636;DHT22;43465;50.728;4.160;2023-02-02T12:10:18;11.40;99.90
57636;DHT22;43465;50.728;4.160;2023-02-02T12:12:55;11.40;99.90
57636;DHT22;43465;50.728;4.160;2023-02-02T12:21:05;11.20;99.90
57636;DHT22;43465;50.728;4.160;2023-02-02T12:23:50;11.30;99.90
57636;DHT22;43465;50.728;4.160;2023-02-02T12:40:33;11.90;99.90
57636;DHT22;43465;50.728;4.160;2023-02-02T12:54:23;12.50;99.90
57636;DHT22;43465;50.728;4.160;2023-02-02T13:08:09;11.90;99.90
57636;DHT22;43465;50.728;4.160;2023-02-02T13:10:46;11.80;99.90
57636;DHT22;43465;50.728;4.160;2023-02-02T13:15:53;12.00;99.90
57636;DHT22;43465;50.728;4.160;2023-02-02T13:18:26;12.00;99.90
57636;DHT22;43465;50.728;4.160;2023-02-02T13:21:02;12.00;99.90
57636;DHT22;43465;50.728;4.160;2023-02-02T13:24:00;12.00;99.90
57636;DHT22;43465;50.728;4.160;2023-02-02T13:26:31;12.00;99.90
57636;DHT22;43465;50.728;4.160;2023-02-02T13:34:26;12.10;99.90
57636;DHT22;43465;50.728;4.160;2023-02-02T13:36:59;12.20;99.90
57636;DHT22;43465;50.728;4.160;2023-02-02T13:39:32;12.20;99.90
57636;DHT22;43465;50.728;4.160;2023-02-02T13:42:00;12.10;99.90
57636;DHT22;43465;50.728;4.160;2023-02-02T13:44:37;12.00;99.90
57636;DHT22;43465;50.728;4.160;2023-02-02T13:47:15;12.10;99.90
57636;DHT22;43465;50.728;4.160;2023-02-02T13:49:48;12.10;99.90
57636;DHT22;43465;50.728;4.160;2023-02-02T14:02:50;13.20;99.90
57636;DHT22;43465;50.728;4.160;2023-02-02T14:10:34;14.90;99.90
57636;DHT22;43465;50.728;4.160;2023-02-02T14:15:58;15.10;99.90
57636;DHT22;43465;50.728;4.160;2023-02-02T14:24:49;13.30;99.90
57636;DHT22;43465;50.728;4.160;2023-02-02T14:48:47;11.60;99.90
57636;DHT22;43465;50.728;4.160;2023-02-02T14:51:20;11.50;99.90
57636;DHT22;43465;50.728;4.160;2023-02-02T14:56:18;11.50;99.90
57636;DHT22;43465;50.728;4.160;2023-02-02T15:06:39;11.50;99.90
57636;DHT22;43465;50.728;4.160;2023-02-02T15:14:40;11.30;99.90
57636;DHT22;43465;50.728;4.160;2023-02-02T15:20:11;11.30;99.90
57636;DHT22;43465;50.728;4.160;2023-02-02T15:27:45;11.30;99.90
57636;DHT22;43465;50.728;4.160;2023-02-02T15:30:15;11.10;99.90
57636;DHT22;43465;50.728;4.160;2023-02-02T15:32:42;11.10;99.90
57636;DHT22;43465;50.728;4.160;2023-02-02T15:35:17;11.10;99.90
57636;DHT22;43465;50.728;4.160;2023-02-02T15:37:48;11.10;99.90
57636;DHT22;43465;50.728;4.160;2023-02-02T15:40:21;11.10;99.90
57636;DHT22;43465;50.728;4.160;2023-02-02T15:42:57;11.20;99.90
57636;DHT22;43465;50.728;4.160;2023-02-02T15:47:54;11.10;99.90
57636;DHT22;43465;50.728;4.160;2023-02-02T15:50:21;11.10;99.90
57636;DHT22;43465;50.728;4.160;2023-02-02T15:52:51;11.00;99.90
57636;DHT22;43465;50.728;4.160;2023-02-02T15:55:35;11.00;99.90
57636;DHT22;43465;50.728;4.160;2023-02-02T15:58:02;10.90;99.90
57636;DHT22;43465;50.728;4.160;2023-02-02T16:00:34;10.90;99.90
57636;DHT22;43465;50.728;4.160;2023-02-02T16:03:16;10.90;99.90
57636;DHT22;43465;50.728;4.160;2023-02-02T16:05:49;10.90;99.90
57636;DHT22;43465;50.728;4.160;2023-02-02T16:08:35;10.90;99.90
57636;DHT22;43465;50.728;4.160;2023-02-02T16:11:21;10.80;99.90
57636;DHT22;43465;50.728;4.160;2023-02-02T16:14:00;10.70;99.90
57636;DHT22;43465;50.728;4.160;2023-02-02T16:16:29;10.70;99.90
57636;DHT22;43465;50.728;4.160;2023-02-02T16:24:39;10.50;99.90
57636;DHT22;43465;50.728;4.160;2023-02-02T16:27:09;10.50;99.90
57636;DHT22;43465;50.728;4.160;2023-02-02T16:29:38;10.50;99.90
57636;DHT22;43465;50.728;4.160;2023-02-02T16:32:04;10.40;99.90
57636;DHT22;43465;50.728;4.160;2023-02-02T16:37:12;10.40;99.90
57636;DHT22;43465;50.728;4.160;2023-02-02T16:39:37;10.40;99.90
57636;DHT22;43465;50.728;4.160;2023-02-02T16:42:29;10.40;99.90
57636;DHT22;43465;50.728;4.160;2023-02-02T16:44:59;10.40;99.90
57636;DHT22;43465;50.728;4.160;2023-02-02T16:52:33;10.40;99.90
57636;DHT22;43465;50.728;4.160;2023-02-02T16:54:59;10.40;99.90
57636;DHT22;43465;50.728;4.160;2023-02-02T16:57:29;10.40;99.90
57636;DHT22;43465;50.728;4.160;2023-02-02T16:59:58;10.40;99.90
57636;DHT22;43465;50.728;4.160;2023-02-02T17:02:37;10.40;99.90
57636;DHT22;43465;50.728;4.160;2023-02-02T17:07:57;10.30;99.90
57636;DHT22;43465;50.728;4.160;2023-02-02T17:10:42;10.30;99.90
57636;DHT22;43465;50.728;4.160;2023-02-02T17:15:58;10.20;99.90
57636;DHT22;43465;50.728;4.160;2023-02-02T17:18:25;10.20;99.90
57636;DHT22;43465;50.728;4.160;2023-02-02T17:20:52;10.20;99.90
57636;DHT22;43465;50.728;4.160;2023-02-02T17:23:24;10.20;99.90
57636;DHT22;43465;50.728;4.160;2023-02-02T17:25:57;10.20;99.90
57636;DHT22;43465;50.728;4.160;2023-02-02T17:28:24;10.30;99.90
57636;DHT22;43465;50.728;4.160;2023-02-02T17:31:07;10.30;99.90
57636;DHT22;43465;50.728;4.160;2023-02-02T17:33:34;10.30;99.90
57636;DHT22;43465;50.728;4.160;2023-02-02T17:36:00;10.30;99.90
57636;DHT22;43465;50.728;4.160;2023-02-02T17:38:26;10.30;99.90
57636;DHT22;43465;50.728;4.160;2023-02-02T17:40:53;10.30;99.90
57636;DHT22;43465;50.728;4.160;2023-02-02T17:43:19;10.30;99.90
57636;DHT22;43465;50.728;4.160;2023-02-02T17:45:45;10.30;99.90
57636;DHT22;43465;50.728;4.160;2023-02-02T17:48:12;10.40;99.90
57636;DHT22;43465;50.728;4.160;2023-02-02T17:50:39;10.40;99.90
57636;DHT22;43465;50.728;4.160;2023-02-02T17:53:05;10.40;99.90
57636;DHT22;43465;50.728;4.160;2023-02-02T17:55:32;10.40;99.90
57636;DHT22;43465;50.728;4.160;2023-02-02T17:58:00;10.40;99.90
57636;DHT22;43465;50.728;4.160;2023-02-02T18:00:26;10.40;99.90
57636;DHT22;43465;50.728;4.160;2023-02-02T18:02:57;10.40;99.90
57636;DHT22;43465;50.728;4.160;2023-02-02T18:05:23;10.40;99.90
57636;DHT22;43465;50.728;4.160;2023-02-02T18:07:49;10.30;99.90
57636;DHT22;43465;50.728;4.160;2023-02-02T18:10:15;10.30;99.90
57636;DHT22;43465;50.728;4.160;2023-02-02T18:12:41;10.30;99.90
57636;DHT22;43465;50.728;4.160;2023-02-02T18:15:11;10.30;99.90
57636;DHT22;43465;50.728;4.160;2023-02-02T18:17:36;10.30;99.90
57636;DHT22;43465;50.728;4.160;2023-02-02T18:20:03;10.30;99.90
57636;DHT22;43465;50.728;4.160;2023-02-02T18:22:29;10.30;99.90
57636;DHT22;43465;50.728;4.160;2023-02-02T18:24:55;10.20;99.90
57636;DHT22;43465;50.728;4.160;2023-02-02T18:27:23;10.30;99.90
57636;DHT22;43465;50.728;4.160;2023-02-02T18:29:49;10.30;99.90
57636;DHT22;43465;50.728;4.160;2023-02-02T18:32:14;10.20;99.90
57636;DHT22;43465;50.728;4.160;2023-02-02T18:34:40;10.20;99.90
57636;DHT22;43465;50.728;4.160;2023-02-02T18:37:06;10.20;99.90
57636;DHT22;43465;50.728;4.160;2023-02-02T18:39:32;10.20;99.90
57636;DHT22;43465;50.728;4.160;2023-02-02T18:41:58;10.20;99.90
57636;DHT22;43465;50.728;4.160;2023-02-02T18:44:24;10.20;99.90
57636;DHT22;43465;50.728;4.160;2023-02-02T18:46:50;10.10;99.90
57636;DHT22;43465;50.728;4.160;2023-02-02T18:49:16;10.20;99.90
57636;DHT22;43465;50.728;4.160;2023-02-02T18:51:41;10.20;99.90
57636;DHT22;43465;50.728;4.160;2023-02-02T18:54:09;10.10;99.90
57636;DHT22;43465;50.728;4.160;2023-02-02T18:56:35;10.10;99.90
57636;DHT22;43465;50.728;4.160;2023-02-02T18:59:01;10.20;99.90
57636;DHT22;43465;50.728;4.160;2023-02-02T19:01:31;10.20;99.90
57636;DHT22;43465;50.728;4.160;2023-02-02T19:03:57;10.20;99.90
57636;DHT22;43465;50.728;4.160;2023-02-02T19:06:25;10.20;99.90
57636;DHT22;43465;50.728;4.160;2023-02-02T19:09:10;10.20;99.90
57636;DHT22;43465;50.728;4.160;2023-02-02T19:14:30;10.20;99.90
57636;DHT22;43465;50.728;4.160;2023-02-02T19:17:19;10.20;99.90
57636;DHT22;43465;50.728;4.160;2023-02-02T19:19:44;10.20;99.90
57636;DHT22;43465;50.728;4.160;2023-02-02T19:24:43;10.20;99.90